createdAt,value
2016-09-11T00:00:41.027Z,0
2016-09-11T00:01:40.715Z,0
2016-09-11T00:02:40.661Z,0
2016-09-11T00:03:40.992Z,0
2016-09-11T00:04:40.654Z,0
2016-09-11T00:05:40.965Z,0
2016-09-11T00:06:40.653Z,0
2016-09-11T00:07:41.015Z,0
2016-09-11T00:08:40.963Z,0
2016-09-11T00:09:40.950Z,0
2016-09-11T00:10:40.654Z,0
2016-09-11T00:11:40.664Z,0
2016-09-11T00:12:41.022Z,0
2016-09-11T00:13:41.266Z,0
2016-09-11T00:14:40.686Z,0
2016-09-11T00:15:40.628Z,0
2016-09-11T00:16:40.940Z,0
2016-09-11T00:17:40.634Z,0
2016-09-11T00:18:40.657Z,0
2016-09-11T00:19:40.924Z,0
2016-09-11T00:20:40.773Z,0
2016-09-11T00:21:40.645Z,0
2016-09-11T00:22:40.925Z,0
2016-09-11T00:23:40.612Z,0
2016-09-11T00:24:40.608Z,0
2016-09-11T00:27:40.841Z,0
2016-09-11T00:28:42.266Z,0
2016-09-11T00:29:40.604Z,0
2016-09-11T00:30:41.550Z,0
2016-09-11T00:31:40.620Z,0
2016-09-11T00:32:40.608Z,0
2016-09-11T00:33:41.162Z,0
2016-09-11T00:34:43.831Z,0
2016-09-11T00:35:43.238Z,0
2016-09-11T00:36:42.862Z,0
2016-09-11T00:37:41.236Z,0
2016-09-11T00:38:41.478Z,0
2016-09-11T00:39:40.812Z,0
2016-09-11T00:40:40.567Z,0
2016-09-11T00:41:40.736Z,0
2016-09-11T00:42:41.182Z,0
2016-09-11T00:43:41.931Z,0
2016-09-11T00:46:40.549Z,0
2016-09-11T00:47:40.752Z,0
2016-09-11T00:48:40.574Z,0
2016-09-11T00:49:40.540Z,0
2016-09-11T00:50:40.589Z,0
2016-09-11T00:51:40.698Z,0
2016-09-11T00:52:40.834Z,0
2016-09-11T00:53:40.563Z,0
2016-09-11T00:54:40.612Z,0
2016-09-11T00:55:40.831Z,0
2016-09-11T00:56:40.849Z,0
2016-09-11T00:57:40.553Z,0
2016-09-11T00:58:40.895Z,0
2016-09-11T00:59:40.514Z,0
2016-09-11T01:00:40.831Z,0
2016-09-11T01:01:40.548Z,0
2016-09-11T01:02:41.128Z,0
2016-09-11T01:03:40.516Z,0
2016-09-11T01:04:40.832Z,0
2016-09-11T01:05:40.492Z,0
2016-09-11T01:06:40.523Z,0
2016-09-11T01:07:40.607Z,0
2016-09-11T01:08:40.496Z,0
2016-09-11T01:09:40.518Z,0
2016-09-11T01:10:40.518Z,0
2016-09-11T01:11:40.490Z,0
2016-09-11T01:12:40.642Z,0
2016-09-11T01:13:40.651Z,0
2016-09-11T01:14:40.515Z,0
2016-09-11T01:15:40.478Z,0
2016-09-11T01:16:40.485Z,0
2016-09-11T01:17:40.577Z,0
2016-09-11T01:18:40.520Z,0
2016-09-11T01:19:40.493Z,0
2016-09-11T01:20:40.481Z,0
2016-09-11T01:21:40.451Z,0
2016-09-11T01:22:40.777Z,0
2016-09-11T01:23:40.462Z,0
2016-09-11T01:24:40.455Z,0
2016-09-11T01:25:40.769Z,0
2016-09-11T01:26:40.644Z,0
2016-09-11T01:27:40.442Z,0
2016-09-11T01:28:40.550Z,0
2016-09-11T01:29:40.734Z,0
2016-09-11T01:30:40.779Z,0
2016-09-11T01:31:40.465Z,0
2016-09-11T01:32:43.510Z,0
2016-09-11T01:33:40.748Z,0
2016-09-11T01:34:40.481Z,0
2016-09-11T01:35:40.463Z,0
2016-09-11T01:36:40.424Z,0
2016-09-11T01:37:40.425Z,0
2016-09-11T01:38:40.431Z,0
2016-09-11T01:39:40.416Z,0
2016-09-11T01:40:40.757Z,0
2016-09-11T01:41:40.410Z,0
2016-09-11T01:42:41.218Z,0
2016-09-11T01:43:43.571Z,0
2016-09-11T01:44:41.789Z,0
2016-09-11T01:45:40.399Z,0
2016-09-11T01:46:41.942Z,0
2016-09-11T01:47:40.393Z,0
2016-09-11T01:48:40.724Z,0
2016-09-11T01:49:41.090Z,0
2016-09-11T01:50:40.400Z,0
2016-09-11T01:51:42.464Z,0
2016-09-11T01:52:41.932Z,0
2016-09-11T01:53:42.303Z,0
2016-09-11T01:54:56.215Z,0
2016-09-11T01:55:41.514Z,0
2016-09-11T01:56:41.340Z,0
2016-09-11T01:57:41.362Z,0
2016-09-11T01:58:40.526Z,0
2016-09-11T01:59:40.372Z,0
2016-09-11T02:00:41.271Z,0
2016-09-11T02:01:41.059Z,0
2016-09-11T02:02:40.451Z,0
2016-09-11T02:03:55.286Z,0
2016-09-11T02:04:40.361Z,0
2016-09-11T02:05:41.116Z,0
2016-09-11T02:06:40.862Z,0
2016-09-11T02:07:40.355Z,0
2016-09-11T02:08:40.350Z,0
2016-09-11T02:09:40.661Z,0
2016-09-11T02:10:40.960Z,0
2016-09-11T02:11:40.340Z,0
2016-09-11T02:12:40.358Z,0
2016-09-11T02:13:40.326Z,0
2016-09-11T02:14:40.369Z,0
2016-09-11T02:15:40.769Z,0
2016-09-11T02:16:40.634Z,0
2016-09-11T02:17:40.672Z,0
2016-09-11T02:18:40.325Z,0
2016-09-11T02:19:40.320Z,0
2016-09-11T02:20:40.414Z,0
2016-09-11T02:21:40.614Z,0
2016-09-11T02:22:40.383Z,0
2016-09-11T02:23:40.286Z,0
2016-09-11T02:24:40.305Z,0
2016-09-11T02:25:40.700Z,0
2016-09-11T02:26:40.298Z,0
2016-09-11T02:27:40.292Z,0
2016-09-11T02:28:40.406Z,0
2016-09-11T02:29:40.585Z,0
2016-09-11T02:30:40.298Z,0
2016-09-11T02:31:40.585Z,0
2016-09-11T02:32:40.312Z,0
2016-09-11T02:33:40.583Z,0
2016-09-11T02:34:40.273Z,0
2016-09-11T02:35:40.605Z,0
2016-09-11T02:36:40.265Z,0
2016-09-11T02:37:40.881Z,0
2016-09-11T02:38:40.567Z,0
2016-09-11T02:39:40.574Z,0
2016-09-11T02:40:40.294Z,0
2016-09-11T02:41:40.260Z,0
2016-09-11T02:42:40.326Z,0
2016-09-11T02:43:40.258Z,0
2016-09-11T02:44:40.259Z,0
2016-09-11T02:45:41.266Z,0
2016-09-11T02:46:40.230Z,0
2016-09-11T02:47:40.536Z,0
2016-09-11T02:48:40.576Z,0
2016-09-11T02:49:40.255Z,0
2016-09-11T02:50:40.233Z,0
2016-09-11T02:51:40.230Z,0
2016-09-11T02:52:40.247Z,0
2016-09-11T02:53:40.232Z,0
2016-09-11T02:54:40.566Z,0
2016-09-11T02:55:40.236Z,0
2016-09-11T02:56:40.558Z,0
2016-09-11T02:57:40.213Z,0
2016-09-11T02:58:40.208Z,0
2016-09-11T02:59:40.222Z,0
2016-09-11T03:00:40.323Z,0
2016-09-11T03:01:42.088Z,0
2016-09-11T03:02:42.856Z,0
2016-09-11T03:03:42.844Z,0
2016-09-11T03:04:41.523Z,0
2016-09-11T03:05:40.187Z,0
2016-09-11T03:06:40.205Z,0
2016-09-11T03:07:40.222Z,0
2016-09-11T03:08:40.209Z,0
2016-09-11T03:09:41.128Z,0
2016-09-11T03:10:44.759Z,0
2016-09-11T03:11:41.177Z,0
2016-09-11T03:12:41.531Z,0
2016-09-11T03:13:41.664Z,0
2016-09-11T03:14:41.107Z,0
2016-09-11T03:15:40.897Z,0
2016-09-11T03:16:40.821Z,0
2016-09-11T03:17:40.151Z,0
2016-09-11T03:18:40.727Z,0
2016-09-11T03:19:40.696Z,0
2016-09-11T03:20:40.403Z,0
2016-09-11T03:21:41.069Z,0
2016-09-11T03:22:40.355Z,0
2016-09-11T03:23:40.160Z,0
2016-09-11T03:24:40.292Z,0
2016-09-11T03:25:40.192Z,0
2016-09-11T03:26:40.167Z,0
2016-09-11T03:27:40.474Z,0
2016-09-11T03:28:40.140Z,0
2016-09-11T03:29:40.185Z,0
2016-09-11T03:30:40.187Z,0
2016-09-11T03:31:40.436Z,0
2016-09-11T03:32:40.436Z,0
2016-09-11T03:33:40.143Z,0
2016-09-11T03:34:40.450Z,0
2016-09-11T03:35:40.131Z,0
2016-09-11T03:36:40.302Z,0
2016-09-11T03:37:40.121Z,0
2016-09-11T03:38:40.157Z,0
2016-09-11T03:39:40.187Z,0
2016-09-11T03:40:40.149Z,0
2016-09-11T03:41:40.108Z,0
2016-09-11T03:42:40.128Z,0
2016-09-11T03:43:40.110Z,0
2016-09-11T03:44:40.107Z,0
2016-09-11T03:45:40.104Z,0
2016-09-11T03:46:40.095Z,0
2016-09-11T03:47:40.392Z,0
2016-09-11T03:48:40.106Z,0
2016-09-11T03:49:40.107Z,0
2016-09-11T03:50:40.095Z,0
2016-09-11T03:51:40.420Z,0
2016-09-11T03:52:40.141Z,0
2016-09-11T03:53:40.396Z,0
2016-09-11T03:54:40.374Z,0
2016-09-11T03:55:40.078Z,0
2016-09-11T03:56:40.084Z,0
2016-09-11T03:57:40.473Z,4
2016-09-11T03:58:40.074Z,4
2016-09-11T03:59:40.085Z,0
2016-09-11T04:00:40.069Z,4
2016-09-11T04:01:40.077Z,4
2016-09-11T04:02:40.057Z,4
2016-09-11T04:03:40.059Z,4
2016-09-11T04:04:40.068Z,4
2016-09-11T04:05:40.053Z,4
2016-09-11T04:06:40.375Z,8
2016-09-11T04:07:40.671Z,12
2016-09-11T04:08:40.044Z,12
2016-09-11T04:09:40.044Z,16
2016-09-11T04:10:40.061Z,16
2016-09-11T04:11:40.040Z,24
2016-09-11T04:12:40.035Z,28
2016-09-11T04:13:40.040Z,32
2016-09-11T04:14:40.027Z,36
2016-09-11T04:15:40.037Z,44
2016-09-11T04:16:40.333Z,52
2016-09-11T04:17:40.025Z,60
2016-09-11T04:18:40.693Z,72
2016-09-11T04:19:41.175Z,84
2016-09-11T04:20:41.601Z,96
2016-09-11T04:21:42.030Z,108
2016-09-11T04:22:40.975Z,124
2016-09-11T04:23:41.754Z,140
2016-09-11T04:24:40.007Z,160
2016-09-11T04:25:40.014Z,180
2016-09-11T04:26:40.430Z,200
2016-09-11T04:27:41.746Z,224
2016-09-11T04:29:43.357Z,276
2016-09-11T04:30:42.387Z,304
2016-09-11T04:31:41.627Z,336
2016-09-11T04:32:40.595Z,364
2016-09-11T04:33:40.626Z,396
2016-09-11T04:34:40.451Z,428
2016-09-11T04:35:39.978Z,464
2016-09-11T04:36:41.966Z,500
2016-09-11T04:37:40.222Z,536
2016-09-11T04:38:40.915Z,576
2016-09-11T04:40:39.959Z,660
2016-09-11T04:41:39.955Z,700
2016-09-11T04:42:39.962Z,748
2016-09-11T04:43:39.959Z,796
2016-09-11T04:44:39.939Z,844
2016-09-11T04:45:39.942Z,900
2016-09-11T04:46:39.943Z,956
2016-09-11T04:47:39.947Z,1012
2016-09-11T04:48:39.941Z,1076
2016-09-11T04:49:39.932Z,1140
2016-09-11T04:50:39.923Z,1208
2016-09-11T04:51:39.926Z,1284
2016-09-11T04:52:39.922Z,1356
2016-09-11T04:53:39.927Z,1428
2016-09-11T04:54:39.926Z,1504
2016-09-11T04:55:39.934Z,1580
2016-09-11T04:56:39.912Z,1656
2016-09-11T04:57:39.911Z,1736
2016-09-11T04:58:39.912Z,1816
2016-09-11T04:59:39.953Z,1896
2016-09-11T05:00:39.898Z,1976
2016-09-11T05:01:39.900Z,2060
2016-09-11T05:02:39.896Z,2144
2016-09-11T05:03:39.892Z,2232
2016-09-11T05:04:39.885Z,2320
2016-09-11T05:05:39.882Z,2408
2016-09-11T05:06:39.887Z,2496
2016-09-11T05:07:39.886Z,2588
2016-09-11T05:08:39.878Z,2680
2016-09-11T05:09:39.904Z,2780
2016-09-11T05:10:39.877Z,2880
2016-09-11T05:11:39.885Z,2988
2016-09-11T05:12:39.864Z,3100
2016-09-11T05:13:39.880Z,3212
2016-09-11T05:14:39.865Z,3324
2016-09-11T05:15:39.875Z,3436
2016-09-11T05:16:39.858Z,3548
2016-09-11T05:17:39.856Z,3664
2016-09-11T05:18:39.852Z,3776
2016-09-11T05:19:39.856Z,3896
2016-09-11T05:20:39.846Z,4004
2016-09-11T05:21:39.842Z,4116
2016-09-11T05:22:39.846Z,4232
2016-09-11T05:23:39.848Z,4344
2016-09-11T05:24:39.831Z,4464
2016-09-11T05:25:40.142Z,4640
2016-09-11T05:26:39.838Z,4776
2016-09-11T05:27:39.826Z,4820
2016-09-11T05:28:39.822Z,4980
2016-09-11T05:29:39.834Z,5096
2016-09-11T05:30:39.815Z,5300
2016-09-11T05:31:39.828Z,5680
2016-09-11T05:32:39.818Z,5972
2016-09-11T05:33:39.816Z,6020
2016-09-11T05:34:39.819Z,6092
2016-09-11T05:35:39.817Z,6388
2016-09-11T05:36:39.841Z,6544
2016-09-11T05:37:43.500Z,6804
2016-09-11T05:38:40.404Z,6792
2016-09-11T05:39:41.163Z,7116
2016-09-11T05:40:40.435Z,7264
2016-09-11T05:41:41.506Z,7376
2016-09-11T05:42:39.798Z,7660
2016-09-11T05:43:39.795Z,7888
2016-09-11T05:44:39.817Z,7852
2016-09-11T05:45:41.044Z,7876
2016-09-11T05:46:42.896Z,7940
2016-09-11T05:47:42.136Z,8212
2016-09-11T05:48:41.614Z,8560
2016-09-11T05:49:41.254Z,8952
2016-09-11T05:50:40.500Z,9424
2016-09-11T05:51:40.810Z,9796
2016-09-11T05:52:40.854Z,10012
2016-09-11T05:53:39.781Z,10352
2016-09-11T05:54:39.985Z,10532
2016-09-11T05:55:39.889Z,10596
2016-09-11T05:56:40.243Z,10832
2016-09-11T05:57:40.041Z,11120
2016-09-11T05:58:40.083Z,11188
2016-09-11T05:59:39.794Z,11248
2016-09-11T06:00:39.788Z,11292
2016-09-11T06:01:39.791Z,11464
2016-09-11T06:02:39.788Z,11672
2016-09-11T06:03:39.800Z,11704
2016-09-11T06:04:39.791Z,11752
2016-09-11T06:05:39.796Z,11872
2016-09-11T06:06:39.800Z,12068
2016-09-11T06:07:39.801Z,12252
2016-09-11T06:08:39.802Z,12500
2016-09-11T06:09:39.814Z,12664
2016-09-11T06:10:39.802Z,12720
2016-09-11T06:11:42.654Z,12828
2016-09-11T06:12:39.827Z,13048
2016-09-11T06:13:39.835Z,13128
2016-09-11T06:14:39.844Z,13264
2016-09-11T06:15:39.831Z,13376
2016-09-11T06:16:39.827Z,13720
2016-09-11T06:17:39.885Z,14176
2016-09-11T06:18:39.914Z,13996
2016-09-11T06:19:39.872Z,13988
2016-09-11T06:20:39.861Z,14432
2016-09-11T06:21:39.865Z,14496
2016-09-11T06:22:40.483Z,14560
2016-09-11T06:23:39.873Z,14720
2016-09-11T06:24:39.903Z,14912
2016-09-11T06:25:40.319Z,15008
2016-09-11T06:26:40.194Z,14752
2016-09-11T06:27:39.914Z,15104
2016-09-11T06:28:39.899Z,15712
2016-09-11T06:29:39.904Z,15904
2016-09-11T06:30:40.232Z,15488
2016-09-11T06:31:39.952Z,15392
2016-09-11T06:32:39.929Z,15584
2016-09-11T06:33:39.953Z,15456
2016-09-11T06:34:39.975Z,14928
2016-09-11T06:35:40.291Z,15060
2016-09-11T06:36:40.260Z,15260
2016-09-11T06:37:39.982Z,14812
2016-09-11T06:38:39.982Z,14836
2016-09-11T06:39:39.963Z,14780
2016-09-11T06:40:40.016Z,14684
2016-09-11T06:41:40.025Z,14768
2016-09-11T06:42:40.019Z,14804
2016-09-11T06:43:40.027Z,14776
2016-09-11T06:44:40.061Z,14840
2016-09-11T06:45:40.015Z,15116
2016-09-11T06:46:40.107Z,15372
2016-09-11T06:47:40.065Z,15372
2016-09-11T06:48:40.065Z,15464
2016-09-11T06:49:40.087Z,15644
2016-09-11T06:50:40.364Z,15804
2016-09-11T06:51:40.400Z,16128
2016-09-11T06:52:40.412Z,15788
2016-09-11T06:53:40.437Z,15716
2016-09-11T06:54:40.108Z,15924
2016-09-11T06:55:42.287Z,15784
2016-09-11T06:56:43.256Z,15904
2016-09-11T06:57:42.848Z,16320
2016-09-11T06:58:42.403Z,16384
2016-09-11T06:59:41.721Z,16768
2016-09-11T07:00:40.151Z,17216
2016-09-11T07:01:40.334Z,17248
2016-09-11T07:02:40.167Z,17344
2016-09-11T07:03:40.638Z,17152
2016-09-11T07:04:42.446Z,16928
2016-09-11T07:05:43.778Z,16992
2016-09-11T07:06:41.503Z,17248
2016-09-11T07:07:41.291Z,17504
2016-09-11T07:08:40.858Z,17664
2016-09-11T07:09:41.364Z,17856
2016-09-11T07:10:40.819Z,17920
2016-09-11T07:11:40.595Z,17888
2016-09-11T07:12:40.602Z,17824
2016-09-11T07:13:40.695Z,18144
2016-09-11T07:14:41.900Z,18400
2016-09-11T07:15:41.479Z,18112
2016-09-11T07:16:40.653Z,17920
2016-09-11T07:17:40.368Z,17984
2016-09-11T07:18:40.482Z,18144
2016-09-11T07:19:40.453Z,18272
2016-09-11T07:20:40.676Z,18464
2016-09-11T07:21:40.724Z,18624
2016-09-11T07:22:40.506Z,18784
2016-09-11T07:23:40.449Z,18880
2016-09-11T07:24:40.480Z,19072
2016-09-11T07:25:40.519Z,19232
2016-09-11T07:26:40.424Z,18976
2016-09-11T07:27:40.779Z,18496
2016-09-11T07:28:40.530Z,18144
2016-09-11T07:29:40.701Z,18496
2016-09-11T07:30:40.514Z,19200
2016-09-11T07:31:40.504Z,19520
2016-09-11T07:32:40.538Z,19712
2016-09-11T07:33:40.534Z,19808
2016-09-11T07:34:40.589Z,19744
2016-09-11T07:35:40.893Z,19616
2016-09-11T07:36:40.553Z,19584
2016-09-11T07:37:40.567Z,19520
2016-09-11T07:38:40.590Z,19296
2016-09-11T07:39:40.593Z,18592
2016-09-11T07:40:40.620Z,18400
2016-09-11T07:41:40.905Z,18368
2016-09-11T07:42:40.652Z,18336
2016-09-11T07:43:40.646Z,18272
2016-09-11T07:44:40.694Z,18336
2016-09-11T07:45:41.021Z,18272
2016-09-11T07:46:41.072Z,18144
2016-09-11T07:47:40.686Z,18016
2016-09-11T07:48:40.715Z,17664
2016-09-11T07:49:41.049Z,17632
2016-09-11T07:50:40.740Z,17696
2016-09-11T07:51:40.855Z,17952
2016-09-11T07:52:41.054Z,18176
2016-09-11T07:53:40.797Z,18432
2016-09-11T07:54:41.059Z,18656
2016-09-11T07:55:40.838Z,18592
2016-09-11T07:56:40.832Z,18464
2016-09-11T07:57:41.127Z,18272
2016-09-11T07:58:40.838Z,18368
2016-09-11T07:59:40.868Z,18528
2016-09-11T08:00:40.873Z,18656
2016-09-11T08:01:41.490Z,18944
2016-09-11T08:02:41.183Z,19008
2016-09-11T08:03:40.909Z,18848
2016-09-11T08:04:41.210Z,18720
2016-09-11T08:05:40.956Z,18912
2016-09-11T08:06:40.914Z,19008
2016-09-11T08:07:40.973Z,19296
2016-09-11T08:08:40.952Z,19264
2016-09-11T08:09:41.026Z,19136
2016-09-11T08:10:40.964Z,18304
2016-09-11T08:11:41.333Z,14784
2016-09-11T08:12:41.312Z,12316
2016-09-11T08:13:42.536Z,12096
2016-09-11T08:14:42.542Z,12080
2016-09-11T08:15:42.402Z,12072
2016-09-11T08:16:42.354Z,12036
2016-09-11T08:17:41.884Z,11972
2016-09-11T08:18:41.082Z,11904
2016-09-11T08:19:41.066Z,11852
2016-09-11T08:20:41.082Z,11828
2016-09-11T08:21:41.129Z,11816
2016-09-11T08:22:41.856Z,11820
2016-09-11T08:23:43.907Z,11844
2016-09-11T08:24:41.525Z,11884
2016-09-11T08:25:41.876Z,11888
2016-09-11T08:26:41.594Z,11912
2016-09-11T08:27:42.442Z,11896
2016-09-11T08:28:41.176Z,11860
2016-09-11T08:29:41.474Z,11812
2016-09-11T08:30:41.806Z,11752
2016-09-11T08:31:41.381Z,11708
2016-09-11T08:32:41.770Z,11676
2016-09-11T08:33:41.937Z,11664
2016-09-11T08:34:41.265Z,11660
2016-09-11T08:35:41.209Z,11668
2016-09-11T08:36:41.813Z,11676
2016-09-11T08:37:41.546Z,11644
2016-09-11T08:38:41.538Z,11600
2016-09-11T08:39:41.247Z,11544
2016-09-11T08:40:41.553Z,11488
2016-09-11T08:41:41.568Z,11456
2016-09-11T08:42:41.566Z,11428
2016-09-11T08:43:41.965Z,11400
2016-09-11T08:44:41.599Z,11372
2016-09-11T08:45:41.599Z,11364
2016-09-11T08:46:41.385Z,11336
2016-09-11T08:47:41.597Z,11308
2016-09-11T08:48:41.309Z,11292
2016-09-11T08:49:41.598Z,11260
2016-09-11T08:50:41.313Z,11248
2016-09-11T08:51:43.050Z,11240
2016-09-11T08:52:56.237Z,11240
2016-09-11T08:53:41.659Z,11244
2016-09-11T08:54:41.784Z,11252
2016-09-11T08:55:41.350Z,11256
2016-09-11T08:56:41.350Z,11240
2016-09-11T08:57:41.352Z,11216
2016-09-11T08:58:41.369Z,11184
2016-09-11T08:59:41.965Z,11160
2016-09-11T09:00:41.378Z,11144
2016-09-11T09:01:41.386Z,11116
2016-09-11T09:02:41.406Z,11084
2016-09-11T09:03:41.698Z,11048
2016-09-11T09:04:41.391Z,10996
2016-09-11T09:05:41.427Z,10952
2016-09-11T09:06:41.417Z,10916
2016-09-11T09:07:41.551Z,10896
2016-09-11T09:08:41.435Z,10884
2016-09-11T09:09:42.989Z,10864
2016-09-11T09:10:41.446Z,10852
2016-09-11T09:11:41.460Z,10840
2016-09-11T09:12:41.473Z,10828
2016-09-11T09:13:41.842Z,10808
2016-09-11T09:14:41.644Z,10768
2016-09-11T09:15:41.470Z,10728
2016-09-11T09:16:41.485Z,10692
2016-09-11T09:17:41.613Z,10672
2016-09-11T09:18:41.931Z,10636
2016-09-11T09:19:41.504Z,10624
2016-09-11T09:20:41.851Z,10600
2016-09-11T09:21:41.506Z,10580
2016-09-11T09:22:41.508Z,10548
2016-09-11T09:23:41.528Z,10516
2016-09-11T09:24:41.764Z,10496
2016-09-11T09:25:41.625Z,10480
2016-09-11T09:26:54.582Z,10472
2016-09-11T09:27:41.528Z,10480
2016-09-11T09:28:41.590Z,10484
2016-09-11T09:29:54.282Z,10492
2016-09-11T09:30:41.849Z,10488
2016-09-11T09:31:41.572Z,10476
2016-09-11T09:32:44.425Z,10468
2016-09-11T09:33:42.673Z,10448
2016-09-11T09:34:42.989Z,10432
2016-09-11T09:35:42.981Z,10420
2016-09-11T09:36:41.845Z,10412
2016-09-11T09:37:42.448Z,10404
2016-09-11T09:38:41.698Z,10384
2016-09-11T09:39:41.759Z,10360
2016-09-11T09:40:42.812Z,10328
2016-09-11T09:41:44.487Z,10296
2016-09-11T09:42:42.259Z,10264
2016-09-11T09:43:42.617Z,10232
2016-09-11T09:44:42.706Z,10212
2016-09-11T09:45:41.639Z,10168
2016-09-11T09:46:42.323Z,10148
2016-09-11T09:47:42.326Z,10120
2016-09-11T09:48:41.843Z,10100
2016-09-11T09:49:42.195Z,10080
2016-09-11T09:50:41.918Z,10060
2016-09-11T09:52:41.669Z,10016
2016-09-11T09:53:42.264Z,9996
2016-09-11T09:54:42.052Z,9968
2016-09-11T09:55:42.308Z,9940
2016-09-11T09:56:41.705Z,9912
2016-09-11T09:57:41.718Z,9880
2016-09-11T09:58:41.714Z,9848
2016-09-11T09:59:41.703Z,9828
2016-09-11T10:00:41.743Z,9808
2016-09-11T10:01:41.728Z,9796
2016-09-11T10:02:41.732Z,9784
2016-09-11T10:03:41.724Z,9780
2016-09-11T10:04:41.832Z,9776
2016-09-11T10:05:41.805Z,9760
2016-09-11T10:06:42.116Z,9740
2016-09-11T10:07:41.854Z,9720
2016-09-11T10:08:42.121Z,9700
2016-09-11T10:09:41.773Z,9668
2016-09-11T10:10:41.784Z,9644
2016-09-11T10:11:42.520Z,9620
2016-09-11T10:12:41.810Z,9604
2016-09-11T10:13:41.837Z,9580
2016-09-11T10:14:41.810Z,9552
2016-09-11T10:15:41.844Z,9532
2016-09-11T10:16:41.802Z,9536
2016-09-11T10:17:41.809Z,9528
2016-09-11T10:18:42.114Z,9524
2016-09-11T10:19:41.828Z,9524
2016-09-11T10:20:42.248Z,9528
2016-09-11T10:21:42.142Z,9528
2016-09-11T10:22:41.849Z,9528
2016-09-11T10:23:41.850Z,9512
2016-09-11T10:24:41.845Z,9488
2016-09-11T10:25:41.872Z,9472
2016-09-11T10:26:41.863Z,9456
2016-09-11T10:27:42.210Z,9448
2016-09-11T10:28:42.222Z,9440
2016-09-11T10:29:42.047Z,9428
2016-09-11T10:30:42.195Z,9420
2016-09-11T10:31:42.328Z,9416
2016-09-11T10:32:41.902Z,9408
2016-09-11T10:33:41.918Z,9412
2016-09-11T10:34:41.906Z,9400
2016-09-11T10:35:41.950Z,9396
2016-09-11T10:36:41.925Z,9392
2016-09-11T10:37:42.541Z,9388
2016-09-11T10:38:41.928Z,9376
2016-09-11T10:39:41.946Z,9368
2016-09-11T10:40:41.982Z,9352
2016-09-11T10:41:41.981Z,9336
2016-09-11T10:42:42.304Z,9324
2016-09-11T10:43:41.965Z,9328
2016-09-11T10:44:42.010Z,9328
2016-09-11T10:45:42.306Z,9336
2016-09-11T10:46:41.973Z,9340
2016-09-11T10:47:41.990Z,9328
2016-09-11T10:48:41.986Z,9316
2016-09-11T10:49:42.029Z,9312
2016-09-11T10:50:44.370Z,9304
2016-09-11T10:51:43.145Z,9288
2016-09-11T10:52:43.703Z,9268
2016-09-11T10:53:43.921Z,9240
2016-09-11T10:54:42.984Z,9200
2016-09-11T10:55:42.032Z,9176
2016-09-11T10:56:42.026Z,9148
2016-09-11T10:57:42.650Z,9152
2016-09-11T10:58:42.880Z,9124
2016-09-11T10:59:43.365Z,9116
2016-09-11T11:00:43.106Z,9112
2016-09-11T11:01:42.994Z,9124
2016-09-11T11:02:43.564Z,9156
2016-09-11T11:03:42.684Z,9164
2016-09-11T11:04:42.079Z,9168
2016-09-11T11:05:42.191Z,9172
2016-09-11T11:06:42.271Z,9168
2016-09-11T11:07:42.473Z,9168
2016-09-11T11:08:43.455Z,9172
2016-09-11T11:09:42.661Z,9180
2016-09-11T11:10:57.336Z,9192
2016-09-11T11:11:42.162Z,9184
2016-09-11T11:12:42.448Z,9176
2016-09-11T11:13:42.389Z,9192
2016-09-11T11:14:42.432Z,9192
2016-09-11T11:15:42.476Z,9208
2016-09-11T11:16:42.144Z,9212
2016-09-11T11:17:42.480Z,9192
2016-09-11T11:18:42.467Z,9184
2016-09-11T11:19:42.166Z,9180
2016-09-11T11:20:42.478Z,9176
2016-09-11T11:21:42.215Z,9072
2016-09-11T11:22:42.510Z,8644
2016-09-11T11:23:42.550Z,8520
2016-09-11T11:24:42.199Z,8672
2016-09-11T11:25:42.218Z,8308
2016-09-11T11:26:42.733Z,8252
2016-09-11T11:27:42.261Z,8304
2016-09-11T11:28:42.555Z,8260
2016-09-11T11:29:42.218Z,8356
2016-09-11T11:30:42.574Z,8584
2016-09-11T11:31:42.231Z,8524
2016-09-11T11:32:42.235Z,8672
2016-09-11T11:33:42.590Z,8496
2016-09-11T11:34:42.279Z,8628
2016-09-11T11:35:42.866Z,8520
2016-09-11T11:36:42.410Z,8636
2016-09-11T11:37:42.397Z,8720
2016-09-11T11:38:42.286Z,8560
2016-09-11T11:39:42.319Z,7912
2016-09-11T11:40:42.323Z,8076
2016-09-11T11:41:42.615Z,8048
2016-09-11T11:42:42.610Z,8360
2016-09-11T11:43:42.310Z,9712
2016-09-11T11:44:42.298Z,10116
2016-09-11T11:45:42.318Z,9880
2016-09-11T11:46:42.319Z,9844
2016-09-11T11:47:42.327Z,10340
2016-09-11T11:49:01.964Z,10948
2016-09-11T11:49:43.032Z,11028
2016-09-11T11:50:43.288Z,11048
2016-09-11T11:51:42.697Z,10892
2016-09-11T11:52:42.428Z,11208
2016-09-11T11:53:42.382Z,11984
2016-09-11T11:54:42.365Z,12748
2016-09-11T11:55:42.374Z,13052
2016-09-11T11:56:42.394Z,13464
2016-09-11T11:57:43.035Z,13424
2016-09-11T11:58:42.401Z,12928
2016-09-11T11:59:42.437Z,11984
2016-09-11T12:00:42.723Z,12628
2016-09-11T12:01:42.415Z,13364
2016-09-11T12:02:42.801Z,13720
2016-09-11T12:03:42.446Z,14140
2016-09-11T12:04:42.439Z,15220
2016-09-11T12:05:42.434Z,14860
2016-09-11T12:06:42.789Z,14768
2016-09-11T12:07:42.660Z,15204
2016-09-11T12:08:44.405Z,15976
2016-09-11T12:09:43.312Z,16736
2016-09-11T12:10:44.244Z,16020
2016-09-11T12:11:42.498Z,15516
2016-09-11T12:12:42.800Z,15080
2016-09-11T12:13:42.801Z,14332
2016-09-11T12:14:43.400Z,14204
2016-09-11T12:15:42.523Z,14500
2016-09-11T12:16:43.085Z,14268
2016-09-11T12:17:42.852Z,13792
2016-09-11T12:18:45.670Z,13324
2016-09-11T12:19:43.221Z,13312
2016-09-11T12:20:44.089Z,13432
2016-09-11T12:21:43.547Z,13260
2016-09-11T12:22:42.896Z,13040
2016-09-11T12:23:43.178Z,12392
2016-09-11T12:24:42.878Z,11824
2016-09-11T12:25:43.575Z,11564
2016-09-11T12:26:43.762Z,11544
2016-09-11T12:27:44.236Z,12052
2016-09-11T12:28:43.164Z,12224
2016-09-11T12:29:43.438Z,11992
2016-09-11T12:30:42.718Z,12116
2016-09-11T12:31:43.241Z,11700
2016-09-11T12:32:42.762Z,10920
2016-09-11T12:33:42.645Z,10324
2016-09-11T12:34:43.153Z,9880
2016-09-11T12:35:42.682Z,9984
2016-09-11T12:36:42.721Z,10212
2016-09-11T12:37:42.683Z,9920
2016-09-11T12:38:42.725Z,9884
2016-09-11T12:39:42.694Z,9748
2016-09-11T12:40:42.708Z,9376
2016-09-11T12:41:43.029Z,9208
2016-09-11T12:42:43.021Z,9220
2016-09-11T12:43:42.962Z,9500
2016-09-11T12:44:43.048Z,9384
2016-09-11T12:45:42.745Z,8764
2016-09-11T12:46:42.755Z,8424
2016-09-11T12:47:42.770Z,8588
2016-09-11T12:48:42.893Z,8884
2016-09-11T12:49:42.757Z,9232
2016-09-11T12:50:42.784Z,9764
2016-09-11T12:51:43.088Z,10504
2016-09-11T12:52:43.218Z,11244
2016-09-11T12:53:42.881Z,11912
2016-09-11T12:54:43.134Z,12124
2016-09-11T12:55:42.814Z,12228
2016-09-11T12:56:42.825Z,12188
2016-09-11T12:57:43.066Z,12172
2016-09-11T12:58:42.844Z,12320
2016-09-11T12:59:42.948Z,12640
2016-09-11T13:00:42.876Z,13160
2016-09-11T13:01:42.886Z,13536
2016-09-11T13:02:42.937Z,13800
2016-09-11T13:03:43.041Z,13596
2016-09-11T13:04:43.060Z,13108
2016-09-11T13:05:43.292Z,12436
2016-09-11T13:06:43.090Z,12012
2016-09-11T13:07:42.926Z,11952
2016-09-11T13:08:42.932Z,12176
2016-09-11T13:09:42.972Z,12604
2016-09-11T13:10:42.927Z,13604
2016-09-11T13:11:43.236Z,14504
2016-09-11T13:12:42.939Z,14536
2016-09-11T13:13:42.936Z,14140
2016-09-11T13:14:42.954Z,13496
2016-09-11T13:15:42.949Z,12624
2016-09-11T13:16:42.962Z,12588
2016-09-11T13:17:42.989Z,12716
2016-09-11T13:18:42.985Z,12584
2016-09-11T13:19:43.290Z,11644
2016-09-11T13:20:43.303Z,11228
2016-09-11T13:21:43.698Z,11028
2016-09-11T13:22:42.998Z,10848
2016-09-11T13:23:43.026Z,10588
2016-09-11T13:24:43.017Z,10272
2016-09-11T13:25:43.156Z,9640
2016-09-11T13:26:44.237Z,9596
2016-09-11T13:27:43.450Z,10280
2016-09-11T13:28:44.750Z,11148
2016-09-11T13:29:43.068Z,11548
2016-09-11T13:30:43.074Z,11992
2016-09-11T13:31:44.019Z,12432
2016-09-11T13:32:43.100Z,13208
2016-09-11T13:33:43.104Z,13704
2016-09-11T13:34:43.135Z,13624
2016-09-11T13:36:46.392Z,12580
2016-09-11T13:37:44.211Z,11788
2016-09-11T13:38:45.244Z,11456
2016-09-11T13:39:43.155Z,11764
2016-09-11T13:40:43.978Z,11608
2016-09-11T13:41:43.455Z,11828